Hillsborough, North Carolina
Current Conditions -  °F | °C
As of 4:56 AM on Sunday 21 Dec 2014 (Local Time) from KIGX Reporting Station
Haze Haze  
Wind Chill: 38°   Ceiling: 2600
Heat Index: 38°   Visibility: 6mi
Dew Point: 35°   Wind: 0mph
Humidity: 89%   Direction: NA
Pressure: 30.26"   Gusts: NA
Location:  36.08°N, 79.1°W
Report Text: KIGX 210956Z AUTO 00000KT 6SM BR OVC026 03/02 A3026 RMK AO2 SLP249 T00330017
Loading
Personal Weather Stations






























Interactive Weather Map New forecast layout! Learn more

10-Day Weather Forecast

Advertisements
Track Severe Weather on mobile